Time;durP1;ratioP1;P1;durP2;ratioP2;P2;SDS_P1;SDS_P2;PMS_P1;PMS_P2;Temp;Humidity;BMP_temperature;BMP_pressure;BME280_temperature;BME280_humidity;BME280_pressure;Samples;Min_cycle;Max_cycle;Signal;HPM_P1;HPM_P2
2022/05/30 00:00:50;;;;;;;6.68;2.17;;;8.20;99.90;;;;;;4968308;28;20034;-69
2022/05/30 00:03:19;;;;;;;9.88;2.70;;;8.20;99.90;;;;;;4969313;28;20043;-70
2022/05/30 00:05:47;;;;;;;11.20;2.47;;;8.20;99.90;;;;;;4973973;28;20397;-71
2022/05/30 00:08:15;;;;;;;5.05;2.15;;;8.10;99.90;;;;;;4970583;28;20106;-70
2022/05/30 00:10:41;;;;;;;10.02;2.40;;;8.10;99.90;;;;;;4971266;28;20051;-70
2022/05/30 00:13:06;;;;;;;7.78;2.50;;;8.10;99.90;;;;;;4973505;28;20045;-70
2022/05/30 00:15:32;;;;;;;9.82;2.60;;;8.00;99.90;;;;;;4975081;28;20101;-70
2022/05/30 00:17:58;;;;;;;9.50;2.20;;;8.00;99.90;;;;;;4974561;28;20070;-70
2022/05/30 00:20:25;;;;;;;9.90;2.53;;;8.00;99.90;;;;;;4967303;28;20461;-70
2022/05/30 00:22:51;;;;;;;5.57;2.28;;;7.90;99.90;;;;;;4967841;28;20050;-70
2022/05/30 00:25:18;;;;;;;13.93;2.92;;;7.90;99.90;;;;;;4973687;28;20481;-70
2022/05/30 00:27:43;;;;;;;5.93;2.20;;;7.90;99.90;;;;;;4973092;28;20105;-71
2022/05/30 00:30:11;;;;;;;9.88;2.28;;;7.90;99.90;;;;;;4975833;28;20043;-70
2022/05/30 00:32:37;;;;;;;7.22;2.58;;;7.90;99.90;;;;;;4966846;28;20444;-71
2022/05/30 00:35:03;;;;;;;9.52;2.00;;;7.90;99.90;;;;;;4972089;28;20126;-71
2022/05/30 00:37:29;;;;;;;6.38;2.13;;;7.90;99.90;;;;;;4971245;28;20053;-71
2022/05/30 00:39:55;;;;;;;7.90;2.22;;;7.90;99.90;;;;;;4969615;28;20050;-71
2022/05/30 00:42:24;;;;;;;12.60;2.78;;;7.90;99.90;;;;;;4972270;28;20078;-71
2022/05/30 00:44:50;;;;;;;5.93;1.83;;;7.90;99.90;;;;;;4973799;28;20042;-71
2022/05/30 00:47:18;;;;;;;16.60;2.17;;;7.90;99.90;;;;;;4988357;28;20051;-70
2022/05/30 00:49:46;;;;;;;7.57;2.10;;;8.00;99.90;;;;;;4971332;28;20380;-72
2022/05/30 00:52:17;;;;;;;14.30;2.53;;;8.00;99.90;;;;;;4971061;28;20109;-71
2022/05/30 00:54:54;;;;;;;10.45;2.15;;;8.10;99.90;;;;;;4975781;28;20055;-71
2022/05/30 00:57:22;;;;;;;4.40;1.58;;;8.10;99.90;;;;;;4969744;28;20067;-71
2022/05/30 01:00:11;;;;;;;7.00;1.85;;;8.10;99.90;;;;;;4971575;28;20050;-70
2022/05/30 01:02:39;;;;;;;7.90;2.03;;;8.10;99.90;;;;;;4965950;28;20501;-71
2022/05/30 01:07:58;;;;;;;5.97;1.70;;;8.20;99.90;;;;;;4972659;28;20133;-69
2022/05/30 01:10:24;;;;;;;;;;;8.30;99.90;;;;;;4966363;28;20053;-70
2022/05/30 01:12:52;;;;;;;8.43;2.17;;;8.30;99.90;;;;;;4989920;28;19926;-71
2022/05/30 01:15:22;;;;;;;6.38;1.83;;;8.20;99.90;;;;;;4963944;28;20118;-71
2022/05/30 01:18:02;;;;;;;5.72;2.00;;;8.20;99.90;;;;;;4971682;28;20460;-71
2022/05/30 01:20:43;;;;;;;8.50;2.15;;;8.10;99.90;;;;;;4975098;28;20051;-71
2022/05/30 01:23:40;;;;;;;7.93;2.00;;;8.10;99.90;;;;;;4967775;28;20089;-72
2022/05/30 01:26:29;;;;;;;4.03;2.03;;;8.10;99.90;;;;;;4965331;28;20038;-71
2022/05/30 01:29:09;;;;;;;7.80;2.13;;;8.10;99.90;;;;;;4972971;28;20049;-69
2022/05/30 01:31:34;;;;;;;9.05;2.10;;;8.00;99.90;;;;;;4970524;28;20488;-71
2022/05/30 01:34:00;;;;;;;7.40;2.20;;;8.00;99.90;;;;;;4970807;28;20536;-71
2022/05/30 01:36:29;;;;;;;7.25;2.08;;;7.90;99.90;;;;;;4972498;28;20368;-71
2022/05/30 01:38:56;;;;;;;10.50;1.80;;;7.80;99.90;;;;;;4974028;28;20050;-71
2022/05/30 01:41:21;;;;;;;9.15;2.40;;;7.80;99.90;;;;;;4970156;28;20039;-71
2022/05/30 01:43:47;;;;;;;8.20;2.00;;;7.70;99.90;;;;;;4964843;28;20117;-71
2022/05/30 01:46:17;;;;;;;6.38;1.90;;;7.70;99.90;;;;;;4972913;28;20075;-71
2022/05/30 01:48:43;;;;;;;6.38;2.05;;;7.60;99.90;;;;;;4969657;28;20058;-71
2022/05/30 01:51:09;;;;;;;5.97;1.88;;;7.60;99.90;;;;;;4965939;28;20047;-71
2022/05/30 01:53:34;;;;;;;6.60;1.80;;;7.60;99.90;;;;;;4969315;28;20078;-70
2022/05/30 01:56:00;;;;;;;5.03;1.80;;;7.50;99.90;;;;;;4973762;28;20047;-70
2022/05/30 01:58:26;;;;;;;2.75;1.70;;;7.50;99.90;;;;;;4972748;28;20396;-70
2022/05/30 02:00:51;;;;;;;7.50;1.73;;;7.40;99.90;;;;;;4972624;28;20049;-71
2022/05/30 02:03:17;;;;;;;6.55;1.85;;;7.40;99.90;;;;;;4974439;28;20436;-70
2022/05/30 02:05:42;;;;;;;4.35;1.70;;;7.40;99.90;;;;;;4984932;28;20066;-70
2022/05/30 02:08:09;;;;;;;6.60;2.03;;;7.40;99.90;;;;;;4972466;28;20187;-70
2022/05/30 02:10:35;;;;;;;5.05;1.70;;;7.40;99.90;;;;;;4972698;28;20154;-70
2022/05/30 02:13:02;;;;;;;7.72;1.80;;;7.40;99.90;;;;;;4971220;28;20075;-69
2022/05/30 02:15:28;;;;;;;2.07;1.60;;;7.40;99.90;;;;;;4974865;28;20046;-70
2022/05/30 02:17:54;;;;;;;3.03;1.80;;;7.40;99.90;;;;;;4965942;28;20047;-70
2022/05/30 02:20:21;;;;;;;5.72;2.10;;;7.40;99.90;;;;;;4969685;28;20109;-70
2022/05/30 02:22:46;;;;;;;6.55;1.70;;;7.40;99.90;;;;;;4969767;28;20109;-70
2022/05/30 02:25:12;;;;;;;3.90;1.75;;;7.40;99.90;;;;;;4973505;28;20461;-70
2022/05/30 02:27:41;;;;;;;6.18;1.70;;;7.40;99.90;;;;;;4969323;28;20042;-70
2022/05/30 02:30:08;;;;;;;4.45;1.80;;;7.30;99.90;;;;;;4972335;28;20097;-71
2022/05/30 02:32:33;;;;;;;5.50;2.03;;;7.30;99.90;;;;;;4973428;28;20469;-70
2022/05/30 02:37:43;;;;;;;5.55;1.70;;;7.30;99.90;;;;;;4969047;28;20070;-70
2022/05/30 02:40:09;;;;;;;3.72;1.63;;;7.30;99.90;;;;;;4971189;28;20034;-70
2022/05/30 02:42:35;;;;;;;4.05;1.90;;;7.30;99.90;;;;;;4969465;28;20053;-70
2022/05/30 02:45:01;;;;;;;6.97;2.08;;;7.30;99.90;;;;;;4970307;28;20134;-70
2022/05/30 02:47:26;;;;;;;6.65;1.70;;;7.30;99.90;;;;;;4970004;28;20042;-70
2022/05/30 02:49:52;;;;;;;5.88;1.65;;;7.20;99.90;;;;;;4968355;28;20482;-70
2022/05/30 02:52:17;;;;;;;4.55;2.00;;;7.20;99.90;;;;;;4969445;28;20039;-71
2022/05/30 02:54:43;;;;;;;3.15;1.60;;;7.20;99.90;;;;;;4969109;28;20081;-69
2022/05/30 02:57:09;;;;;;;6.68;2.00;;;7.20;99.90;;;;;;4970582;28;20050;-70
2022/05/30 02:59:34;;;;;;;4.93;1.80;;;7.20;99.90;;;;;;4969128;28;20133;-70
2022/05/30 03:02:00;;;;;;;13.13;2.63;;;7.20;99.90;;;;;;4968729;28;20130;-70
2022/05/30 03:04:26;;;;;;;4.85;2.10;;;7.30;99.90;;;;;;4969907;28;20414;-72
2022/05/30 03:06:51;;;;;;;4.68;2.00;;;7.30;99.90;;;;;;4971171;28;20529;-71
2022/05/30 03:09:18;;;;;;;4.22;1.58;;;7.40;99.90;;;;;;4968025;28;20101;-71
2022/05/30 03:11:44;;;;;;;5.57;1.88;;;7.50;99.90;;;;;;4970528;28;20046;-71
2022/05/30 03:14:09;;;;;;;4.07;1.77;;;7.50;99.90;;;;;;4969639;28;20050;-70
2022/05/30 03:16:35;;;;;;;3.55;1.63;;;7.60;99.90;;;;;;4973988;28;20065;-69
2022/05/30 03:19:00;;;;;;;7.32;1.88;;;7.70;99.90;;;;;;4968573;28;20050;-71
2022/05/30 03:21:26;;;;;;;3.35;1.95;;;7.70;99.90;;;;;;4969490;28;20492;-71
2022/05/30 03:23:53;;;;;;;8.73;1.88;;;7.80;99.90;;;;;;4969301;28;20085;-70
2022/05/30 03:26:19;;;;;;;5.50;2.00;;;7.80;99.90;;;;;;4970959;28;20051;-71
2022/05/30 03:28:45;;;;;;;5.43;1.98;;;7.80;99.90;;;;;;4969871;28;20065;-71
2022/05/30 03:31:11;;;;;;;10.05;2.10;;;7.80;99.90;;;;;;4971734;28;20046;-70
2022/05/30 03:33:38;;;;;;;5.95;1.90;;;7.90;99.90;;;;;;4965125;28;20417;-70
2022/05/30 03:36:16;;;;;;;4.90;1.83;;;7.90;99.90;;;;;;4968091;28;20529;-70
2022/05/30 03:38:42;;;;;;;8.52;2.05;;;7.90;99.90;;;;;;4967925;28;20058;-70
2022/05/30 03:41:08;;;;;;;6.00;1.88;;;8.00;99.90;;;;;;4966805;28;20413;-70
2022/05/30 03:43:33;;;;;;;7.65;2.15;;;8.00;99.90;;;;;;4984476;28;20058;-70
2022/05/30 03:46:00;;;;;;;7.97;2.10;;;8.00;99.90;;;;;;4973746;28;20042;-70
2022/05/30 03:48:25;;;;;;;5.32;2.20;;;8.00;99.90;;;;;;4973153;28;20438;-71
2022/05/30 03:50:51;;;;;;;5.40;2.42;;;8.00;99.90;;;;;;4971896;28;20125;-70
2022/05/30 03:53:17;;;;;;;8.65;2.50;;;8.10;99.90;;;;;;4968596;28;20836;-71
2022/05/30 03:55:44;;;;;;;4.68;2.00;;;8.10;99.90;;;;;;4962754;28;20097;-70
2022/05/30 03:58:12;;;;;;;8.60;3.03;;;8.10;99.90;;;;;;4968791;28;20058;-70
2022/05/30 04:00:39;;;;;;;7.68;3.13;;;8.10;99.90;;;;;;4969264;28;20200;-70
2022/05/30 04:03:05;;;;;;;6.15;2.38;;;8.10;99.90;;;;;;4968527;28;20043;-71
2022/05/30 04:05:31;;;;;;;8.32;2.55;;;8.10;99.90;;;;;;4965305;28;20051;-71
2022/05/30 04:07:57;;;;;;;4.95;2.63;;;8.10;99.90;;;;;;4930452;28;1061888;-71
2022/05/30 04:10:24;;;;;;;6.40;2.60;;;8.10;99.90;;;;;;4969701;28;20051;-70
2022/05/30 04:12:57;;;;;;;8.55;2.38;;;8.10;99.90;;;;;;4975834;28;20125;-70
2022/05/30 04:15:23;;;;;;;8.43;2.30;;;8.10;99.90;;;;;;4971842;28;20414;-70
2022/05/30 04:17:49;;;;;;;10.98;2.80;;;8.10;99.90;;;;;;4969259;28;20043;-70
2022/05/30 04:20:16;;;;;;;7.90;2.88;;;8.20;99.90;;;;;;4971951;28;20054;-71
2022/05/30 04:22:44;;;;;;;5.68;2.20;;;8.20;99.90;;;;;;4985749;28;20055;-71
2022/05/30 04:25:10;;;;;;;5.70;2.40;;;8.20;99.90;;;;;;4972204;28;20049;-70
2022/05/30 04:27:36;;;;;;;8.93;2.58;;;8.30;99.90;;;;;;4969471;28;20605;-70
2022/05/30 04:30:01;;;;;;;8.57;3.20;;;8.30;99.90;;;;;;4970094;28;20042;-70
2022/05/30 04:32:27;;;;;;;6.40;2.60;;;8.30;99.90;;;;;;4968239;28;20042;-70
2022/05/30 04:34:53;;;;;;;8.65;2.13;;;8.40;99.90;;;;;;4977856;28;20043;-71
2022/05/30 04:37:19;;;;;;;8.48;2.53;;;8.40;99.90;;;;;;4966422;28;20038;-70
2022/05/30 04:39:45;;;;;;;6.00;2.20;;;8.50;99.90;;;;;;4971466;28;20035;-71
2022/05/30 04:42:10;;;;;;;7.97;2.38;;;8.50;99.90;;;;;;4970580;28;20433;-72
2022/05/30 04:44:36;;;;;;;7.32;2.55;;;8.50;99.90;;;;;;4968730;28;20101;-71
2022/05/30 04:47:02;;;;;;;4.88;2.00;;;8.50;99.90;;;;;;4970140;28;20050;-72
2022/05/30 04:49:28;;;;;;;9.95;2.47;;;8.50;99.90;;;;;;4969235;28;20051;-70
2022/05/30 04:51:53;;;;;;;7.40;2.65;;;8.50;99.90;;;;;;4972344;28;20060;-72
2022/05/30 04:54:20;;;;;;;4.53;2.30;;;8.50;99.90;;;;;;4968807;28;20433;-70
2022/05/30 04:56:46;;;;;;;6.22;2.20;;;8.50;99.90;;;;;;4970415;28;20485;-70
2022/05/30 04:59:13;;;;;;;7.47;2.65;;;8.50;99.90;;;;;;4970263;28;20549;-69
2022/05/30 05:01:39;;;;;;;7.90;2.47;;;8.60;99.90;;;;;;4971566;28;20045;-70
2022/05/30 05:04:06;;;;;;;4.43;2.00;;;8.60;99.90;;;;;;4988068;28;20038;-71
2022/05/30 05:06:32;;;;;;;7.03;2.33;;;8.60;99.90;;;;;;4972814;28;20505;-68
2022/05/30 05:09:06;;;;;;;6.55;2.13;;;8.60;99.90;;;;;;4969501;28;20059;-69
2022/05/30 05:11:34;;;;;;;7.18;2.60;;;8.70;99.90;;;;;;4964870;28;20441;-70
2022/05/30 05:14:00;;;;;;;7.25;2.40;;;8.80;99.90;;;;;;4967808;28;20042;-72
2022/05/30 05:16:28;;;;;;;8.70;2.30;;;8.80;99.90;;;;;;4970163;28;20042;-71
2022/05/30 05:18:54;;;;;;;11.68;2.45;;;8.90;99.90;;;;;;4972879;28;20055;-71
2022/05/30 05:21:26;;;;;;;9.57;2.97;;;8.90;99.90;;;;;;4972060;28;20038;-70
2022/05/30 05:23:52;;;;;;;4.60;2.15;;;9.00;99.90;;;;;;4972197;28;20493;-70
2022/05/30 05:26:19;;;;;;;4.43;2.28;;;9.00;99.90;;;;;;4975466;28;20049;-72
2022/05/30 05:28:45;;;;;;;5.63;2.60;;;9.10;99.90;;;;;;4970137;28;20448;-70
2022/05/30 05:31:19;;;;;;;6.88;2.53;;;9.20;99.90;;;;;;4972594;28;20121;-70
2022/05/30 05:33:44;;;;;;;7.40;2.83;;;9.20;99.90;;;;;;4970224;28;20050;-70
2022/05/30 05:36:10;;;;;;;8.02;2.78;;;9.30;99.90;;;;;;4970773;28;20357;-70
2022/05/30 05:38:35;;;;;;;5.00;2.60;;;9.40;99.90;;;;;;4970323;28;20041;-70
2022/05/30 05:41:06;;;;;;;10.75;2.72;;;9.40;99.90;;;;;;4969216;28;20061;-70
2022/05/30 05:43:31;;;;;;;8.32;2.58;;;9.40;99.90;;;;;;4984020;28;20050;-70
2022/05/30 05:45:57;;;;;;;5.60;2.28;;;9.50;99.90;;;;;;4970178;28;20038;-71
2022/05/30 05:48:22;;;;;;;5.82;2.75;;;9.50;99.90;;;;;;4969340;28;20054;-71
2022/05/30 05:50:48;;;;;;;6.50;2.38;;;9.50;99.90;;;;;;4974477;28;20130;-71
2022/05/30 05:53:14;;;;;;;9.38;2.47;;;9.50;99.90;;;;;;4971798;28;20512;-70
2022/05/30 05:55:39;;;;;;;5.97;2.50;;;9.50;99.90;;;;;;4989386;28;20094;-70
2022/05/30 05:58:06;;;;;;;8.55;3.08;;;9.60;99.90;;;;;;4972444;28;20042;-70
2022/05/30 06:00:33;;;;;;;4.88;2.38;;;9.80;99.90;;;;;;4963052;28;20859;-70
2022/05/30 06:02:59;;;;;;;4.38;2.47;;;9.90;99.90;;;;;;4962783;28;20039;-70
2022/05/30 06:05:25;;;;;;;4.30;2.40;;;10.00;99.90;;;;;;4969229;28;20571;-71
2022/05/30 06:07:51;;;;;;;4.82;2.50;;;10.20;99.90;;;;;;4971156;28;20752;-70
2022/05/30 06:10:17;;;;;;;8.15;2.00;;;10.20;99.90;;;;;;4980350;28;20133;-70
2022/05/30 06:12:45;;;;;;;4.72;2.17;;;10.20;99.90;;;;;;4966817;28;20085;-71
2022/05/30 06:15:16;;;;;;;5.97;2.40;;;10.30;99.90;;;;;;4966018;28;20058;-71
2022/05/30 06:17:44;;;;;;;6.45;1.80;;;10.40;99.90;;;;;;4963622;28;20058;-71
2022/05/30 06:20:11;;;;;;;4.93;1.50;;;10.60;99.90;;;;;;4964075;28;21303;-71
2022/05/30 06:22:37;;;;;;;2.78;1.20;;;10.60;99.90;;;;;;4963244;28;20042;-71
2022/05/30 06:25:04;;;;;;;6.95;1.40;;;10.70;99.90;;;;;;4963133;28;20134;-70
2022/05/30 06:27:30;;;;;;;5.65;1.75;;;10.70;99.90;;;;;;4966453;28;20038;-70
2022/05/30 06:29:56;;;;;;;3.17;1.58;;;10.60;99.90;;;;;;4965897;28;20081;-71
2022/05/30 06:32:22;;;;;;;4.90;1.40;;;10.60;99.90;;;;;;4960763;28;20070;-71
2022/05/30 06:34:47;;;;;;;6.57;1.50;;;10.70;99.90;;;;;;4965692;28;20086;-70
2022/05/30 06:37:14;;;;;;;3.40;1.30;;;10.70;99.90;;;;;;4968224;28;20035;-71
2022/05/30 06:39:41;;;;;;;4.22;1.42;;;10.70;99.90;;;;;;4967610;28;20126;-71
2022/05/30 06:42:11;;;;;;;2.90;1.10;;;10.80;99.90;;;;;;4971156;28;20090;-70
2022/05/30 06:44:37;;;;;;;4.80;1.15;;;10.70;99.90;;;;;;4968471;28;20047;-69
2022/05/30 06:47:05;;;;;;;4.30;1.40;;;10.70;99.90;;;;;;4967454;28;20185;-69
2022/05/30 06:49:31;;;;;;;3.00;1.17;;;10.80;99.90;;;;;;4979590;28;20088;-70
2022/05/30 06:51:57;;;;;;;5.05;1.52;;;10.70;99.90;;;;;;4962659;28;20481;-69
2022/05/30 06:54:23;;;;;;;4.60;1.38;;;10.60;99.90;;;;;;4962524;28;20081;-70
2022/05/30 06:59:33;;;;;;;6.32;1.20;;;10.60;99.90;;;;;;4965398;28;20397;-71
2022/05/30 07:02:00;;;;;;;2.90;1.08;;;10.80;99.90;;;;;;4963455;28;20046;-70
2022/05/30 07:04:29;;;;;;;6.10;1.40;;;10.80;99.90;;;;;;4969393;28;20058;-69
2022/05/30 07:06:55;;;;;;;2.35;1.20;;;10.80;99.90;;;;;;4964445;28;20043;-69
2022/05/30 07:09:21;;;;;;;3.17;1.25;;;10.90;99.90;;;;;;4964830;28;20065;-69
2022/05/30 07:11:49;;;;;;;3.15;1.58;;;11.00;99.90;;;;;;4960948;28;20050;-69
2022/05/30 07:14:16;;;;;;;2.80;1.38;;;11.00;99.90;;;;;;4972192;28;20038;-70
2022/05/30 07:16:42;;;;;;;2.38;1.20;;;11.00;99.90;;;;;;4960385;28;20051;-70
2022/05/30 07:19:09;;;;;;;4.05;1.60;;;11.00;99.90;;;;;;4966033;28;20047;-70
2022/05/30 07:21:36;;;;;;;7.63;2.08;;;11.10;99.90;;;;;;4979656;28;20437;-70
2022/05/30 07:24:02;;;;;;;3.38;1.40;;;11.00;99.90;;;;;;4964286;28;20054;-71
2022/05/30 07:26:29;;;;;;;4.53;1.77;;;11.10;99.90;;;;;;4967524;28;20043;-69
2022/05/30 07:28:55;;;;;;;6.00;1.40;;;11.10;99.90;;;;;;4964390;28;20047;-70
2022/05/30 07:31:22;;;;;;;2.70;1.10;;;11.20;99.90;;;;;;4968811;28;20547;-70
2022/05/30 07:33:49;;;;;;;1.50;1.15;;;11.20;99.90;;;;;;4962243;28;20446;-70
2022/05/30 07:36:21;;;;;;;3.53;1.27;;;11.30;99.90;;;;;;4964590;28;20477;-70
2022/05/30 07:38:47;;;;;;;3.10;1.20;;;11.30;99.90;;;;;;4965688;28;20088;-68
2022/05/30 07:41:13;;;;;;;2.53;1.15;;;11.30;99.90;;;;;;4966797;28;20058;-69
2022/05/30 07:43:39;;;;;;;3.20;1.50;;;11.40;99.90;;;;;;4963728;28;20039;-70
2022/05/30 07:46:08;;;;;;;2.65;1.48;;;11.40;99.90;;;;;;4964958;28;20031;-69
2022/05/30 07:48:34;;;;;;;8.55;1.30;;;11.60;99.90;;;;;;4966620;28;20058;-69
2022/05/30 07:51:01;;;;;;;8.57;2.17;;;11.80;99.90;;;;;;4967143;28;20133;-70
2022/05/30 07:53:28;;;;;;;3.03;1.35;;;12.00;99.90;;;;;;4965834;28;20043;-70
2022/05/30 07:55:54;;;;;;;4.25;1.17;;;12.10;99.90;;;;;;4964836;28;22529;-70
2022/05/30 07:58:20;;;;;;;3.20;0.98;;;12.30;99.90;;;;;;4964739;28;20042;-70
2022/05/30 08:00:49;;;;;;;3.20;1.30;;;12.50;99.90;;;;;;4964775;28;20182;-70
2022/05/30 08:03:16;;;;;;;3.65;1.33;;;12.70;99.90;;;;;;4963599;28;20043;-70
2022/05/30 08:05:43;;;;;;;5.00;1.63;;;12.80;99.90;;;;;;4957461;28;20041;-70
2022/05/30 08:08:10;;;;;;;2.87;1.47;;;13.10;99.90;;;;;;4963640;28;20094;-70
2022/05/30 08:10:37;;;;;;;5.15;1.50;;;13.40;99.90;;;;;;4966252;28;20046;-71
2022/05/30 08:13:03;;;;;;;7.07;1.67;;;13.60;99.90;;;;;;4968325;28;20051;-70
2022/05/30 08:15:30;;;;;;;3.60;1.33;;;13.80;99.90;;;;;;4966431;28;20409;-69
2022/05/30 08:17:57;;;;;;;2.63;1.50;;;13.60;99.90;;;;;;4969054;28;20150;-71
2022/05/30 08:20:25;;;;;;;4.10;1.38;;;13.50;99.90;;;;;;4969156;28;20043;-69
2022/05/30 08:22:50;;;;;;;3.93;1.27;;;13.40;99.90;;;;;;4963784;28;20042;-70
2022/05/30 08:25:18;;;;;;;3.03;1.30;;;13.30;99.90;;;;;;4964721;28;20031;-70
2022/05/30 08:27:45;;;;;;;3.80;1.30;;;13.20;99.90;;;;;;4963452;28;20050;-70
2022/05/30 08:30:12;;;;;;;3.13;1.15;;;13.10;99.90;;;;;;4964402;28;20034;-70
2022/05/30 08:32:41;;;;;;;7.50;1.40;;;13.10;99.90;;;;;;4967087;28;20049;-70
2022/05/30 08:35:13;;;;;;;2.83;1.27;;;13.20;99.90;;;;;;4955138;28;20066;-70
2022/05/30 08:37:39;;;;;;;4.35;1.13;;;13.50;99.90;;;;;;4969124;28;20127;-70
2022/05/30 08:42:54;;;;;;;0.88;0.65;;;13.80;99.90;;;;;;4973864;28;20050;-70
2022/05/30 08:45:22;;;;;;;2.60;0.70;;;13.70;99.90;;;;;;4975105;28;20043;-70
2022/05/30 08:47:54;;;;;;;5.53;0.95;;;13.50;99.90;;;;;;4972292;28;20129;-70
2022/05/30 08:50:39;;;;;;;4.57;1.10;;;13.30;99.90;;;;;;4969279;28;20544;-69
2022/05/30 08:53:23;;;;;;;2.20;0.90;;;13.20;99.90;;;;;;4969444;28;20401;-71
2022/05/30 08:56:09;;;;;;;2.17;1.00;;;13.00;99.90;;;;;;4974009;28;20046;-71
2022/05/30 08:58:46;;;;;;;2.65;0.90;;;13.00;99.90;;;;;;4971317;28;20053;-70
2022/05/30 09:01:18;;;;;;;4.03;1.42;;;12.90;99.90;;;;;;4975864;28;20061;-70
2022/05/30 09:04:16;;;;;;;4.28;1.13;;;13.00;99.90;;;;;;4972389;28;20125;-70
2022/05/30 09:07:00;;;;;;;3.08;1.10;;;13.00;99.90;;;;;;4974230;28;20047;-70
2022/05/30 09:09:51;;;;;;;2.10;1.10;;;13.00;99.90;;;;;;4967449;28;20066;-70
2022/05/30 09:12:25;;;;;;;1.92;0.82;;;13.00;99.90;;;;;;4971839;28;20085;-69
2022/05/30 09:15:13;;;;;;;1.40;0.77;;;12.90;99.90;;;;;;4973383;28;20441;-71
2022/05/30 09:17:47;;;;;;;1.70;0.90;;;12.90;99.90;;;;;;4971610;28;20517;-68
2022/05/30 09:20:17;;;;;;;1.67;1.02;;;12.90;99.90;;;;;;4973104;28;20125;-68
2022/05/30 09:22:43;;;;;;;3.28;1.00;;;12.90;99.90;;;;;;4974319;28;20069;-68
2022/05/30 09:27:59;;;;;;;3.90;1.17;;;12.80;99.90;;;;;;4972482;28;20209;-69
2022/05/30 09:30:35;;;;;;;3.63;1.08;;;12.90;99.90;;;;;;4974659;28;20503;-69
2022/05/30 09:33:26;;;;;;;2.65;1.20;;;12.80;99.90;;;;;;4971558;28;20074;-70
2022/05/30 09:36:13;;;;;;;2.15;1.25;;;12.90;99.90;;;;;;4968692;28;20162;-69
2022/05/30 09:39:03;;;;;;;3.33;1.02;;;13.00;99.90;;;;;;4964305;28;20051;-69
2022/05/30 09:41:59;;;;;;;2.15;1.10;;;13.00;99.90;;;;;;4962076;28;20405;-69
2022/05/30 09:44:42;;;;;;;3.90;1.60;;;13.10;99.90;;;;;;4952022;28;20054;-68
2022/05/30 09:47:17;;;;;;;3.80;1.45;;;13.20;99.90;;;;;;4971696;28;20406;-68
2022/05/30 09:49:46;;;;;;;5.70;1.33;;;13.20;99.90;;;;;;4973475;28;20047;-69
2022/05/30 09:52:32;;;;;;;4.32;1.23;;;13.30;99.90;;;;;;4971564;28;20039;-70
2022/05/30 09:54:59;;;;;;;2.25;1.13;;;13.30;99.90;;;;;;4969839;28;20133;-69
2022/05/30 09:57:42;;;;;;;2.53;1.10;;;13.40;99.90;;;;;;4968634;28;20104;-70
2022/05/30 10:00:16;;;;;;;2.40;1.30;;;13.30;99.90;;;;;;4972803;28;20046;-70
2022/05/30 10:02:45;;;;;;;3.80;1.17;;;13.30;99.90;;;;;;4972057;28;20550;-71
2022/05/30 10:05:14;;;;;;;3.63;0.88;;;13.60;99.90;;;;;;4970404;28;20050;-69
2022/05/30 10:07:52;;;;;;;5.15;1.00;;;13.70;99.90;;;;;;4969842;28;20047;-70
2022/05/30 10:10:24;;;;;;;1.27;0.60;;;13.90;99.90;;;;;;4968413;28;20047;-70
2022/05/30 10:12:54;;;;;;;2.30;0.90;;;14.10;99.90;;;;;;4963057;28;20050;-69
2022/05/30 10:15:23;;;;;;;3.70;0.70;;;14.30;99.90;;;;;;4971352;28;20050;-69
2022/05/30 10:17:54;;;;;;;0.77;0.60;;;14.30;99.90;;;;;;4967052;28;20420;-71
2022/05/30 10:20:36;;;;;;;1.02;0.55;;;14.20;99.90;;;;;;4970972;28;20051;-70
2022/05/30 10:29:25;;;;;;;3.13;0.88;;;14.20;99.90;;;;;;4968558;28;20046;-69
2022/05/30 10:32:05;;;;;;;;;;;14.20;99.90;;;;;;4969238;28;20497;-70
2022/05/30 10:34:51;;;;;;;2.27;0.60;;;14.20;99.90;;;;;;4968129;28;20065;-70
2022/05/30 10:37:44;;;;;;;0.80;0.60;;;14.10;99.90;;;;;;4964568;28;20305;-70
2022/05/30 10:40:32;;;;;;;2.88;0.82;;;14.20;99.90;;;;;;4971107;28;20567;-70
2022/05/30 10:43:52;;;;;;;3.03;0.73;;;14.00;99.90;;;;;;4967717;28;20053;-70
2022/05/30 10:46:27;;;;;;;2.75;1.00;;;13.90;99.90;;;;;;4965020;28;20129;-71
2022/05/30 10:49:28;;;;;;;1.60;0.80;;;13.70;99.90;;;;;;4963211;28;20050;-69
2022/05/30 10:52:08;;;;;;;3.72;1.08;;;13.60;99.90;;;;;;4966556;28;20429;-71
2022/05/30 10:54:59;;;;;;;2.45;0.90;;;13.40;99.90;;;;;;4966790;28;20050;-71
2022/05/30 10:57:37;;;;;;;2.80;0.80;;;13.30;99.90;;;;;;4969760;28;20089;-70
2022/05/30 11:00:17;;;;;;;1.13;0.77;;;13.20;99.90;;;;;;4970914;28;20390;-70
2022/05/30 11:02:58;;;;;;;2.45;0.80;;;13.20;99.90;;;;;;4972779;28;20058;-70
2022/05/30 11:05:30;;;;;;;1.55;0.73;;;13.10;99.90;;;;;;4966086;28;20050;-70
2022/05/30 11:08:27;;;;;;;2.65;0.90;;;13.10;99.90;;;;;;4969778;28;20060;-69
2022/05/30 11:11:23;;;;;;;1.25;0.80;;;12.90;99.90;;;;;;4971580;28;20049;-69
2022/05/30 11:13:59;;;;;;;1.48;0.70;;;12.90;99.90;;;;;;4972245;28;20050;-70
2022/05/30 11:16:28;;;;;;;1.73;0.95;;;12.90;99.90;;;;;;4967785;28;20047;-70
2022/05/30 11:18:59;;;;;;;2.35;0.90;;;13.00;99.90;;;;;;4970042;28;20043;-69
2022/05/30 11:21:36;;;;;;;9.02;1.15;;;13.10;99.90;;;;;;4971488;28;20046;-69
2022/05/30 11:24:04;;;;;;;1.73;0.75;;;13.20;99.90;;;;;;4968218;28;20053;-69
2022/05/30 11:26:57;;;;;;;4.05;1.20;;;13.30;99.90;;;;;;4969314;28;20058;-70
2022/05/30 11:29:54;;;;;;;3.28;1.00;;;13.50;99.90;;;;;;4969459;28;20042;-68
2022/05/30 11:32:41;;;;;;;2.00;1.00;;;13.60;99.90;;;;;;4970740;28;20069;-69
2022/05/30 11:35:19;;;;;;;2.67;1.10;;;13.60;99.90;;;;;;4969763;28;20043;-69
2022/05/30 11:38:13;;;;;;;2.20;1.00;;;13.70;99.90;;;;;;4967917;28;20101;-68
2022/05/30 11:41:20;;;;;;;1.50;0.90;;;13.70;99.90;;;;;;4973062;28;20046;-69
2022/05/30 11:44:04;;;;;;;3.13;1.10;;;13.70;99.90;;;;;;4967353;28;20050;-69
2022/05/30 11:47:07;;;;;;;5.15;1.40;;;13.80;99.90;;;;;;4962104;28;20248;-68
2022/05/30 11:49:38;;;;;;;3.95;1.10;;;13.80;99.90;;;;;;4956288;28;20513;-69
2022/05/30 11:52:45;;;;;;;4.25;1.20;;;13.90;99.90;;;;;;4968605;28;20117;-69
2022/05/30 11:55:26;;;;;;;2.78;1.42;;;13.80;99.90;;;;;;4969133;28;20472;-71
2022/05/30 11:58:15;;;;;;;5.57;1.55;;;13.90;99.90;;;;;;4969753;28;20055;-71
2022/05/30 12:00:48;;;;;;;3.15;1.23;;;13.80;99.90;;;;;;4962379;28;20046;-71
2022/05/30 12:03:44;;;;;;;3.85;1.00;;;13.70;99.90;;;;;;4970224;28;20485;-71
2022/05/30 12:06:43;;;;;;;2.88;1.23;;;13.70;99.90;;;;;;4970431;28;20046;-69
2022/05/30 12:09:24;;;;;;;3.47;0.73;;;13.60;99.90;;;;;;4971777;28;20493;-70
2022/05/30 12:11:52;;;;;;;2.80;1.33;;;13.60;99.90;;;;;;4969817;28;20031;-70
2022/05/30 12:14:47;;;;;;;4.50;1.48;;;13.60;99.90;;;;;;4975764;28;20045;-69
2022/05/30 12:23:49;;;;;;;3.22;1.20;;;13.20;99.90;;;;;;4974176;28;20578;-70
2022/05/30 12:26:16;;;;;;;3.40;1.10;;;13.10;99.90;;;;;;4972137;28;20050;-69
2022/05/30 12:28:41;;;;;;;1.73;1.05;;;12.90;99.90;;;;;;4973107;28;20412;-69
2022/05/30 12:31:08;;;;;;;2.42;1.25;;;12.90;99.90;;;;;;4974068;28;20131;-69
2022/05/30 12:33:33;;;;;;;2.83;1.30;;;12.80;99.90;;;;;;4971368;28;20654;-69
2022/05/30 12:36:08;;;;;;;3.65;1.10;;;12.80;99.90;;;;;;4972015;28;20130;-69
2022/05/30 12:38:49;;;;;;;2.90;1.17;;;12.90;99.90;;;;;;4971468;28;20058;-70
2022/05/30 12:41:17;;;;;;;3.70;1.25;;;12.90;99.90;;;;;;4973021;28;20038;-69
2022/05/30 12:43:45;;;;;;;2.78;1.20;;;12.80;99.90;;;;;;4972822;28;20039;-68
2022/05/30 12:46:15;;;;;;;4.65;1.33;;;12.80;99.90;;;;;;4966741;28;20053;-69
2022/05/30 12:48:44;;;;;;;2.70;1.02;;;12.90;99.90;;;;;;4970448;28;20082;-69
2022/05/30 12:51:35;;;;;;;1.67;1.00;;;13.00;99.90;;;;;;4973431;28;20496;-69
2022/05/30 12:54:01;;;;;;;4.55;1.00;;;13.00;99.90;;;;;;4967414;28;20042;-70
2022/05/30 12:56:39;;;;;;;1.60;0.90;;;13.00;99.90;;;;;;4983670;28;20704;-70
2022/05/30 12:59:33;;;;;;;2.07;0.90;;;13.00;99.90;;;;;;4989100;28;20401;-70
2022/05/30 13:02:00;;;;;;;1.80;0.90;;;12.90;99.90;;;;;;4982856;28;20050;-69
2022/05/30 13:04:35;;;;;;;2.40;1.13;;;12.90;99.90;;;;;;4966629;28;20047;-69
2022/05/30 13:07:01;;;;;;;1.42;1.00;;;12.80;99.90;;;;;;4966448;28;20504;-69
2022/05/30 13:09:30;;;;;;;2.85;1.25;;;12.70;99.90;;;;;;4967491;28;20058;-68
2022/05/30 13:12:10;;;;;;;3.40;1.15;;;12.70;99.90;;;;;;4971967;28;20070;-70
2022/05/30 13:15:00;;;;;;;3.83;1.23;;;12.80;99.90;;;;;;4963183;28;20121;-70
2022/05/30 13:17:46;;;;;;;3.83;1.48;;;13.00;99.90;;;;;;4986578;28;20042;-70
2022/05/30 13:20:21;;;;;;;5.28;1.20;;;12.80;99.90;;;;;;4966728;28;20050;-68
2022/05/30 13:22:52;;;;;;;4.35;1.20;;;12.90;99.90;;;;;;4967583;28;20523;-69
2022/05/30 13:25:23;;;;;;;1.60;0.85;;;12.90;99.90;;;;;;4968216;28;20050;-68
2022/05/30 13:27:49;;;;;;;1.83;1.02;;;12.80;99.90;;;;;;4969484;28;20049;-70
2022/05/30 13:30:28;;;;;;;1.67;1.00;;;12.70;99.90;;;;;;4967933;28;20038;-69
2022/05/30 13:32:54;;;;;;;3.08;1.05;;;12.60;99.90;;;;;;4971332;28;20057;-70
2022/05/30 13:35:25;;;;;;;3.45;1.00;;;12.60;99.90;;;;;;4969775;28;20398;-70
2022/05/30 13:38:02;;;;;;;2.83;1.27;;;12.60;99.90;;;;;;4966729;28;20157;-68